S/y Tatsu — MKEM9 — position and weather

sailwx.info

Track history (hours):
 
Tides and Currents Weather Stations Pressure Air Temp Water Temp Dewpoint Dewpoint Depression Visibility Wind Speed Wind Dir Waves Ship Positions

S/y Tatsu

Last reported at 2017-Sep-16 12:52 UTC. Time now 2017-Nov-18 20:04 UTC.
Position N 37°00' W 008°07'.
Warning: this ship's position is months out of date.

Length 11 m.

Type: Sailing vessel. MMSI: 235071049.

Date/timePositionNaut miles runAvg speedWind from/ knotsBaromVisibWave heightAir tempDewpointWater temp
2017-Sep-16 12:52N 37°00' W 008°07'3 6.2
2017-Sep-16 12:21N 37°02' W 008°10'2 5.2
2017-Sep-16 11:53N 37°03' W 008°12'2 4.6
2017-Sep-16 11:25N 37°04' W 008°15'1 0.0
2017-Sep-14 11:51N 37°04' W 008°16'2 4.5
2017-Sep-14 11:30N 37°03' W 008°18'3 5.1
2017-Sep-14 11:00N 37°03' W 008°21'3 5.4
2017-Sep-14 10:30N 37°03' W 008°24'3 5.2
2017-Sep-14 10:00N 37°04' W 008°27'2 5.0
2017-Sep-14 09:30N 37°04' W 008°30'3 5.1
2017-Sep-14 09:00N 37°05' W 008°33'3 5.1
2017-Sep-14 08:30N 37°05' W 008°37'2 3.0
2017-Sep-14 08:00N 37°06' W 008°38'2 3.9
2017-Sep-14 07:30N 37°07' W 008°40'0 0.0
2017-Sep-14 06:58N 37°07' W 008°40'  
2017-Sep-07 17:15N 37°07' W 008°40'0 0.0
2017-Sep-07 14:34N 37°07' W 008°40'0 1.5
2017-Sep-07 14:30N 37°06' W 008°40'0 0.1
2017-Sep-07 14:00N 37°06' W 008°40'2 4.4
2017-Sep-07 13:30N 37°04' W 008°39'2 4.5
2017-Sep-07 12:59N 37°03' W 008°42'2 4.7
2017-Sep-07 12:29N 37°02' W 008°45'2 4.5
2017-Sep-07 12:00N 37°02' W 008°47'2 4.3
2017-Sep-07 11:29N 37°01' W 008°50'3 4.5
2017-Sep-07 10:49N 37°00' W 008°54'2 0.1
2017-Sep-06 16:51N 36°60' W 008°57'  
Track history (hours):
 
Tides and Currents Weather Stations Pressure Air Temp Water Temp Dewpoint Dewpoint Depression Visibility Wind Speed Wind Dir Waves Ship Positions

S/y Tatsu

Last reported at 2017-Sep-16 12:52 UTC. Time now 2017-Nov-18 20:04 UTC.
Position N 37°00' W 008°07'.
Warning: this ship's position is months out of date.

Length 11 m.

Type: Sailing vessel. MMSI: 235071049.

Date/timePositionNaut miles runAvg speedWind from/ knotsBaromVisibWave heightAir tempDewpointWater temp
2017-Sep-16 12:52N 37°00' W 008°07'3 6.2
2017-Sep-16 12:21N 37°02' W 008°10'2 5.2
2017-Sep-16 11:53N 37°03' W 008°12'2 4.6
2017-Sep-16 11:25N 37°04' W 008°15'1 0.0
2017-Sep-14 11:51N 37°04' W 008°16'2 4.5
2017-Sep-14 11:30N 37°03' W 008°18'3 5.1
2017-Sep-14 11:00N 37°03' W 008°21'3 5.4
2017-Sep-14 10:30N 37°03' W 008°24'3 5.2
2017-Sep-14 10:00N 37°04' W 008°27'2 5.0
2017-Sep-14 09:30N 37°04' W 008°30'3 5.1
2017-Sep-14 09:00N 37°05' W 008°33'3 5.1
2017-Sep-14 08:30N 37°05' W 008°37'2 3.0
2017-Sep-14 08:00N 37°06' W 008°38'2 3.9
2017-Sep-14 07:30N 37°07' W 008°40'0 0.0
2017-Sep-14 06:58N 37°07' W 008°40'  
2017-Sep-07 17:15N 37°07' W 008°40'0 0.0
2017-Sep-07 14:34N 37°07' W 008°40'0 1.5
2017-Sep-07 14:30N 37°06' W 008°40'0 0.1
2017-Sep-07 14:00N 37°06' W 008°40'2 4.4
2017-Sep-07 13:30N 37°04' W 008°39'2 4.5
2017-Sep-07 12:59N 37°03' W 008°42'2 4.7
2017-Sep-07 12:29N 37°02' W 008°45'2 4.5
2017-Sep-07 12:00N 37°02' W 008°47'2 4.3
2017-Sep-07 11:29N 37°01' W 008°50'3 4.5
2017-Sep-07 10:49N 37°00' W 008°54'2 0.1
2017-Sep-06 16:51N 36°60' W 008°57'  

Dump ship's entire track history